sensor_id;sensor_type;location;lat;lon;timestamp;temperature;humidity
21759;DHT22;11041;50.854;20.580;2023-03-13T00:01:23;3.60;99.90
21759;DHT22;11041;50.854;20.580;2023-03-13T00:04:11;3.50;99.90
21759;DHT22;11041;50.854;20.580;2023-03-13T00:06:38;3.60;99.90
21759;DHT22;11041;50.854;20.580;2023-03-13T00:09:08;3.60;99.90
21759;DHT22;11041;50.854;20.580;2023-03-13T00:11:37;3.60;99.90
21759;DHT22;11041;50.854;20.580;2023-03-13T00:14:04;3.70;99.90
21759;DHT22;11041;50.854;20.580;2023-03-13T00:16:32;3.70;99.90
21759;DHT22;11041;50.854;20.580;2023-03-13T00:19:00;3.70;99.90
21759;DHT22;11041;50.854;20.580;2023-03-13T00:21:27;3.70;99.90
21759;DHT22;11041;50.854;20.580;2023-03-13T00:23:55;3.70;99.90
21759;DHT22;11041;50.854;20.580;2023-03-13T00:26:25;3.70;99.90
21759;DHT22;11041;50.854;20.580;2023-03-13T00:28:53;3.70;99.90
21759;DHT22;11041;50.854;20.580;2023-03-13T00:31:25;3.70;99.90
21759;DHT22;11041;50.854;20.580;2023-03-13T00:33:57;3.70;99.90
21759;DHT22;11041;50.854;20.580;2023-03-13T00:36:27;3.80;99.90
21759;DHT22;11041;50.854;20.580;2023-03-13T00:38:56;3.80;99.90
21759;DHT22;11041;50.854;20.580;2023-03-13T00:41:25;3.80;99.90
21759;DHT22;11041;50.854;20.580;2023-03-13T00:43:57;3.80;99.90
21759;DHT22;11041;50.854;20.580;2023-03-13T00:46:27;3.80;99.90
21759;DHT22;11041;50.854;20.580;2023-03-13T00:48:55;3.80;99.90
21759;DHT22;11041;50.854;20.580;2023-03-13T00:51:23;3.80;99.90
21759;DHT22;11041;50.854;20.580;2023-03-13T00:53:52;3.80;99.90
21759;DHT22;11041;50.854;20.580;2023-03-13T00:56:19;3.80;99.90
21759;DHT22;11041;50.854;20.580;2023-03-13T00:58:48;3.80;99.90
21759;DHT22;11041;50.854;20.580;2023-03-13T01:04:00;3.60;99.90
21759;DHT22;11041;50.854;20.580;2023-03-13T01:06:31;3.60;99.90
21759;DHT22;11041;50.854;20.580;2023-03-13T01:09:00;3.50;99.90
21759;DHT22;11041;50.854;20.580;2023-03-13T01:11:30;3.50;99.90
21759;DHT22;11041;50.854;20.580;2023-03-13T01:14:11;3.40;99.90
21759;DHT22;11041;50.854;20.580;2023-03-13T01:16:40;3.30;99.90
21759;DHT22;11041;50.854;20.580;2023-03-13T01:19:10;3.20;99.90
21759;DHT22;11041;50.854;20.580;2023-03-13T01:21:38;3.20;99.90
21759;DHT22;11041;50.854;20.580;2023-03-13T01:24:06;3.10;99.90
21759;DHT22;11041;50.854;20.580;2023-03-13T01:26:33;3.10;99.90
21759;DHT22;11041;50.854;20.580;2023-03-13T01:28:59;3.10;99.90
21759;DHT22;11041;50.854;20.580;2023-03-13T01:31:28;3.00;99.90
21759;DHT22;11041;50.854;20.580;2023-03-13T01:33:59;3.00;99.90
21759;DHT22;11041;50.854;20.580;2023-03-13T01:36:27;3.00;99.90
21759;DHT22;11041;50.854;20.580;2023-03-13T01:38:57;3.00;99.90
21759;DHT22;11041;50.854;20.580;2023-03-13T01:41:25;3.00;99.90
21759;DHT22;11041;50.854;20.580;2023-03-13T01:43:54;3.00;99.90
21759;DHT22;11041;50.854;20.580;2023-03-13T01:46:23;3.00;99.90
21759;DHT22;11041;50.854;20.580;2023-03-13T01:51:50;3.00;99.90
21759;DHT22;11041;50.854;20.580;2023-03-13T01:57:33;2.80;99.90
21759;DHT22;11041;50.854;20.580;2023-03-13T02:00:12;2.70;99.90
21759;DHT22;11041;50.854;20.580;2023-03-13T02:02:48;2.80;99.90
21759;DHT22;11041;50.854;20.580;2023-03-13T02:05:21;2.70;99.90
21759;DHT22;11041;50.854;20.580;2023-03-13T02:08:00;2.70;99.90
21759;DHT22;11041;50.854;20.580;2023-03-13T02:10:37;2.70;99.90
21759;DHT22;11041;50.854;20.580;2023-03-13T02:13:08;2.60;99.90
21759;DHT22;11041;50.854;20.580;2023-03-13T02:15:40;2.70;99.90
21759;DHT22;11041;50.854;20.580;2023-03-13T02:18:07;2.80;99.90
21759;DHT22;11041;50.854;20.580;2023-03-13T02:20:34;2.80;99.90
21759;DHT22;11041;50.854;20.580;2023-03-13T02:23:18;2.70;99.90
21759;DHT22;11041;50.854;20.580;2023-03-13T02:25:51;2.60;99.90
21759;DHT22;11041;50.854;20.580;2023-03-13T02:28:24;2.60;99.90
21759;DHT22;11041;50.854;20.580;2023-03-13T02:30:55;2.70;99.90
21759;DHT22;11041;50.854;20.580;2023-03-13T02:33:27;2.70;99.90
21759;DHT22;11041;50.854;20.580;2023-03-13T02:35:56;2.70;99.90
21759;DHT22;11041;50.854;20.580;2023-03-13T02:38:29;2.80;99.90
21759;DHT22;11041;50.854;20.580;2023-03-13T02:40:59;2.70;99.90
21759;DHT22;11041;50.854;20.580;2023-03-13T02:43:33;2.80;99.90
21759;DHT22;11041;50.854;20.580;2023-03-13T02:46:14;2.70;99.90
21759;DHT22;11041;50.854;20.580;2023-03-13T02:48:47;2.70;99.90
21759;DHT22;11041;50.854;20.580;2023-03-13T02:51:35;2.60;99.90
21759;DHT22;11041;50.854;20.580;2023-03-13T02:54:13;2.70;99.90
21759;DHT22;11041;50.854;20.580;2023-03-13T02:56:46;2.70;99.90
21759;DHT22;11041;50.854;20.580;2023-03-13T02:59:16;2.70;99.90
21759;DHT22;11041;50.854;20.580;2023-03-13T03:01:43;2.70;99.90
21759;DHT22;11041;50.854;20.580;2023-03-13T03:04:09;2.70;99.90
21759;DHT22;11041;50.854;20.580;2023-03-13T03:06:36;2.80;99.90
21759;DHT22;11041;50.854;20.580;2023-03-13T03:09:03;2.70;99.90
21759;DHT22;11041;50.854;20.580;2023-03-13T03:11:30;2.60;99.90
21759;DHT22;11041;50.854;20.580;2023-03-13T03:13:56;2.70;99.90
21759;DHT22;11041;50.854;20.580;2023-03-13T03:16:23;2.70;99.90
21759;DHT22;11041;50.854;20.580;2023-03-13T03:18:49;2.70;99.90
21759;DHT22;11041;50.854;20.580;2023-03-13T03:21:16;2.70;99.90
21759;DHT22;11041;50.854;20.580;2023-03-13T03:23:42;2.70;99.90
21759;DHT22;11041;50.854;20.580;2023-03-13T03:26:09;2.70;99.90
21759;DHT22;11041;50.854;20.580;2023-03-13T03:28:35;2.80;99.90
21759;DHT22;11041;50.854;20.580;2023-03-13T03:31:07;2.80;99.90
21759;DHT22;11041;50.854;20.580;2023-03-13T03:33:36;2.70;99.90
21759;DHT22;11041;50.854;20.580;2023-03-13T03:36:06;2.80;99.90
21759;DHT22;11041;50.854;20.580;2023-03-13T03:38:38;2.60;99.90
21759;DHT22;11041;50.854;20.580;2023-03-13T03:41:06;2.60;99.90
21759;DHT22;11041;50.854;20.580;2023-03-13T03:43:34;2.50;99.90
21759;DHT22;11041;50.854;20.580;2023-03-13T03:46:00;2.60;99.90
21759;DHT22;11041;50.854;20.580;2023-03-13T03:48:28;2.70;99.90
21759;DHT22;11041;50.854;20.580;2023-03-13T03:50:54;2.70;99.90
21759;DHT22;11041;50.854;20.580;2023-03-13T03:53:21;2.80;99.90
21759;DHT22;11041;50.854;20.580;2023-03-13T03:55:48;2.80;99.90
21759;DHT22;11041;50.854;20.580;2023-03-13T03:58:15;2.70;99.90
21759;DHT22;11041;50.854;20.580;2023-03-13T04:00:45;2.80;99.90
21759;DHT22;11041;50.854;20.580;2023-03-13T04:03:14;2.80;99.90
21759;DHT22;11041;50.854;20.580;2023-03-13T04:05:40;2.70;99.90
21759;DHT22;11041;50.854;20.580;2023-03-13T04:08:07;2.80;99.90
21759;DHT22;11041;50.854;20.580;2023-03-13T04:10:34;2.80;99.90
21759;DHT22;11041;50.854;20.580;2023-03-13T04:13:01;2.80;99.90
21759;DHT22;11041;50.854;20.580;2023-03-13T04:15:28;2.80;99.90
21759;DHT22;11041;50.854;20.580;2023-03-13T04:17:54;2.70;99.90
21759;DHT22;11041;50.854;20.580;2023-03-13T04:20:21;2.60;99.90
21759;DHT22;11041;50.854;20.580;2023-03-13T04:22:47;2.60;99.90
21759;DHT22;11041;50.854;20.580;2023-03-13T04:25:13;2.70;99.90
21759;DHT22;11041;50.854;20.580;2023-03-13T04:27:40;2.80;99.90
21759;DHT22;11041;50.854;20.580;2023-03-13T04:30:08;2.90;99.90
21759;DHT22;11041;50.854;20.580;2023-03-13T04:32:35;2.80;99.90
21759;DHT22;11041;50.854;20.580;2023-03-13T04:35:02;2.90;99.90
21759;DHT22;11041;50.854;20.580;2023-03-13T04:37:28;2.80;99.90
21759;DHT22;11041;50.854;20.580;2023-03-13T04:39:55;2.80;99.90
21759;DHT22;11041;50.854;20.580;2023-03-13T04:42:21;2.80;99.90
21759;DHT22;11041;50.854;20.580;2023-03-13T04:44:48;2.90;99.90
21759;DHT22;11041;50.854;20.580;2023-03-13T04:47:14;2.90;99.90
21759;DHT22;11041;50.854;20.580;2023-03-13T04:49:41;2.90;99.90
21759;DHT22;11041;50.854;20.580;2023-03-13T04:52:07;2.90;99.90
21759;DHT22;11041;50.854;20.580;2023-03-13T04:54:34;2.90;99.90
21759;DHT22;11041;50.854;20.580;2023-03-13T04:57:00;3.00;99.90
21759;DHT22;11041;50.854;20.580;2023-03-13T04:59:27;3.00;99.90
21759;DHT22;11041;50.854;20.580;2023-03-13T05:01:54;3.00;99.90
21759;DHT22;11041;50.854;20.580;2023-03-13T05:04:20;3.00;99.90
21759;DHT22;11041;50.854;20.580;2023-03-13T05:06:47;3.00;99.90
21759;DHT22;11041;50.854;20.580;2023-03-13T05:09:13;3.10;99.90
21759;DHT22;11041;50.854;20.580;2023-03-13T05:11:40;3.10;99.90
21759;DHT22;11041;50.854;20.580;2023-03-13T05:14:07;3.10;99.90
21759;DHT22;11041;50.854;20.580;2023-03-13T05:16:37;3.10;99.90
21759;DHT22;11041;50.854;20.580;2023-03-13T05:19:04;3.20;99.90
21759;DHT22;11041;50.854;20.580;2023-03-13T05:21:31;3.20;99.90
21759;DHT22;11041;50.854;20.580;2023-03-13T05:23:57;3.20;99.90
21759;DHT22;11041;50.854;20.580;2023-03-13T05:26:24;3.30;99.90
21759;DHT22;11041;50.854;20.580;2023-03-13T05:28:50;3.20;99.90
21759;DHT22;11041;50.854;20.580;2023-03-13T05:31:17;3.30;99.90
21759;DHT22;11041;50.854;20.580;2023-03-13T05:33:43;3.30;99.90
21759;DHT22;11041;50.854;20.580;2023-03-13T05:36:10;3.30;99.90
21759;DHT22;11041;50.854;20.580;2023-03-13T05:38:36;3.30;99.90
21759;DHT22;11041;50.854;20.580;2023-03-13T05:41:03;3.30;99.90
21759;DHT22;11041;50.854;20.580;2023-03-13T05:43:29;3.40;99.90
21759;DHT22;11041;50.854;20.580;2023-03-13T05:45:56;3.50;99.90
21759;DHT22;11041;50.854;20.580;2023-03-13T05:48:22;3.50;99.90
21759;DHT22;11041;50.854;20.580;2023-03-13T05:50:49;3.50;99.90
21759;DHT22;11041;50.854;20.580;2023-03-13T05:53:15;3.50;99.90
21759;DHT22;11041;50.854;20.580;2023-03-13T05:55:42;3.60;99.90
21759;DHT22;11041;50.854;20.580;2023-03-13T05:58:08;3.60;99.90
21759;DHT22;11041;50.854;20.580;2023-03-13T06:00:35;3.60;99.90
21759;DHT22;11041;50.854;20.580;2023-03-13T06:03:01;3.50;99.90
21759;DHT22;11041;50.854;20.580;2023-03-13T06:05:28;3.50;99.90
21759;DHT22;11041;50.854;20.580;2023-03-13T06:07:54;3.60;99.90
21759;DHT22;11041;50.854;20.580;2023-03-13T06:10:21;3.70;99.90
21759;DHT22;11041;50.854;20.580;2023-03-13T06:12:54;3.80;99.90
21759;DHT22;11041;50.854;20.580;2023-03-13T06:15:22;3.80;99.90
21759;DHT22;11041;50.854;20.580;2023-03-13T06:17:48;3.90;99.90
21759;DHT22;11041;50.854;20.580;2023-03-13T06:20:15;3.90;99.90
21759;DHT22;11041;50.854;20.580;2023-03-13T06:22:42;4.00;99.90
21759;DHT22;11041;50.854;20.580;2023-03-13T06:25:10;4.10;99.90
21759;DHT22;11041;50.854;20.580;2023-03-13T06:27:36;4.10;99.90
21759;DHT22;11041;50.854;20.580;2023-03-13T06:30:03;4.20;99.90
21759;DHT22;11041;50.854;20.580;2023-03-13T06:32:30;4.20;99.90
21759;DHT22;11041;50.854;20.580;2023-03-13T06:34:56;4.30;99.90
21759;DHT22;11041;50.854;20.580;2023-03-13T06:37:23;4.30;99.90
21759;DHT22;11041;50.854;20.580;2023-03-13T06:39:49;4.40;99.90
21759;DHT22;11041;50.854;20.580;2023-03-13T06:42:16;4.50;99.90
21759;DHT22;11041;50.854;20.580;2023-03-13T06:44:42;4.50;99.90
21759;DHT22;11041;50.854;20.580;2023-03-13T06:47:09;4.50;99.90
21759;DHT22;11041;50.854;20.580;2023-03-13T06:49:36;4.60;99.90
21759;DHT22;11041;50.854;20.580;2023-03-13T06:52:02;4.70;99.90
21759;DHT22;11041;50.854;20.580;2023-03-13T06:54:29;4.70;99.90
21759;DHT22;11041;50.854;20.580;2023-03-13T06:56:55;4.80;99.90
21759;DHT22;11041;50.854;20.580;2023-03-13T06:59:22;4.90;99.90
21759;DHT22;11041;50.854;20.580;2023-03-13T07:01:49;5.00;99.90
21759;DHT22;11041;50.854;20.580;2023-03-13T07:04:15;5.10;99.90
21759;DHT22;11041;50.854;20.580;2023-03-13T07:06:42;5.20;99.90
21759;DHT22;11041;50.854;20.580;2023-03-13T07:09:08;5.30;99.90
21759;DHT22;11041;50.854;20.580;2023-03-13T07:11:36;5.40;99.90
21759;DHT22;11041;50.854;20.580;2023-03-13T07:14:02;5.50;99.90
21759;DHT22;11041;50.854;20.580;2023-03-13T07:16:29;5.50;99.90
21759;DHT22;11041;50.854;20.580;2023-03-13T07:18:56;5.60;99.90
21759;DHT22;11041;50.854;20.580;2023-03-13T07:21:23;5.70;99.90
21759;DHT22;11041;50.854;20.580;2023-03-13T07:23:49;5.80;99.90
21759;DHT22;11041;50.854;20.580;2023-03-13T07:26:15;5.90;99.90
21759;DHT22;11041;50.854;20.580;2023-03-13T07:28:43;5.90;99.90
21759;DHT22;11041;50.854;20.580;2023-03-13T07:31:20;6.00;99.90
21759;DHT22;11041;50.854;20.580;2023-03-13T07:33:49;6.10;99.90
21759;DHT22;11041;50.854;20.580;2023-03-13T07:36:21;6.20;99.90
21759;DHT22;11041;50.854;20.580;2023-03-13T07:38:49;6.30;99.90
21759;DHT22;11041;50.854;20.580;2023-03-13T07:41:16;6.50;99.90
21759;DHT22;11041;50.854;20.580;2023-03-13T07:43:44;6.60;99.90
21759;DHT22;11041;50.854;20.580;2023-03-13T07:46:14;6.70;99.90
21759;DHT22;11041;50.854;20.580;2023-03-13T07:48:47;6.90;99.90
21759;DHT22;11041;50.854;20.580;2023-03-13T07:51:17;7.10;99.90
21759;DHT22;11041;50.854;20.580;2023-03-13T07:53:46;7.30;99.90
21759;DHT22;11041;50.854;20.580;2023-03-13T07:56:18;7.50;99.90
21759;DHT22;11041;50.854;20.580;2023-03-13T07:58:47;7.60;99.90
21759;DHT22;11041;50.854;20.580;2023-03-13T08:01:17;7.70;99.90
21759;DHT22;11041;50.854;20.580;2023-03-13T08:03:52;7.70;99.90
21759;DHT22;11041;50.854;20.580;2023-03-13T08:06:24;7.70;99.90
21759;DHT22;11041;50.854;20.580;2023-03-13T08:08:55;7.70;99.90
21759;DHT22;11041;50.854;20.580;2023-03-13T08:11:24;7.80;99.90
21759;DHT22;11041;50.854;20.580;2023-03-13T08:13:54;8.00;99.90
21759;DHT22;11041;50.854;20.580;2023-03-13T08:16:30;8.00;99.90
21759;DHT22;11041;50.854;20.580;2023-03-13T08:19:00;8.10;99.90
21759;DHT22;11041;50.854;20.580;2023-03-13T08:21:35;8.20;99.90
21759;DHT22;11041;50.854;20.580;2023-03-13T08:24:05;8.30;99.90
21759;DHT22;11041;50.854;20.580;2023-03-13T08:26:34;8.30;99.90
21759;DHT22;11041;50.854;20.580;2023-03-13T08:29:06;8.30;99.90
21759;DHT22;11041;50.854;20.580;2023-03-13T08:31:45;8.40;99.90
21759;DHT22;11041;50.854;20.580;2023-03-13T08:34:14;8.40;99.90
21759;DHT22;11041;50.854;20.580;2023-03-13T08:36:42;8.50;99.90
21759;DHT22;11041;50.854;20.580;2023-03-13T08:39:18;8.50;99.90
21759;DHT22;11041;50.854;20.580;2023-03-13T08:41:45;8.60;99.90
21759;DHT22;11041;50.854;20.580;2023-03-13T08:44:15;8.60;99.90
21759;DHT22;11041;50.854;20.580;2023-03-13T08:46:43;8.70;99.90
21759;DHT22;11041;50.854;20.580;2023-03-13T08:49:10;8.80;99.90
21759;DHT22;11041;50.854;20.580;2023-03-13T08:51:38;8.80;99.90
21759;DHT22;11041;50.854;20.580;2023-03-13T08:54:05;8.90;99.90
21759;DHT22;11041;50.854;20.580;2023-03-13T08:56:32;8.80;99.90
21759;DHT22;11041;50.854;20.580;2023-03-13T08:59:01;8.80;99.90
21759;DHT22;11041;50.854;20.580;2023-03-13T09:01:31;9.00;99.90
21759;DHT22;11041;50.854;20.580;2023-03-13T09:03:59;9.00;99.90
21759;DHT22;11041;50.854;20.580;2023-03-13T09:06:26;9.10;99.90
21759;DHT22;11041;50.854;20.580;2023-03-13T09:08:55;9.10;99.90
21759;DHT22;11041;50.854;20.580;2023-03-13T09:11:23;9.30;99.90
21759;DHT22;11041;50.854;20.580;2023-03-13T09:13:50;9.30;99.90
21759;DHT22;11041;50.854;20.580;2023-03-13T09:16:20;9.40;99.90
21759;DHT22;11041;50.854;20.580;2023-03-13T09:18:50;9.50;99.90
21759;DHT22;11041;50.854;20.580;2023-03-13T09:21:24;9.60;99.90
21759;DHT22;11041;50.854;20.580;2023-03-13T09:23:55;9.70;99.90
21759;DHT22;11041;50.854;20.580;2023-03-13T09:26:23;9.70;99.90
21759;DHT22;11041;50.854;20.580;2023-03-13T09:28:51;9.80;99.90
21759;DHT22;11041;50.854;20.580;2023-03-13T09:31:21;9.90;99.90
21759;DHT22;11041;50.854;20.580;2023-03-13T09:33:49;10.00;99.90
21759;DHT22;11041;50.854;20.580;2023-03-13T09:36:18;10.00;99.90
21759;DHT22;11041;50.854;20.580;2023-03-13T09:38:45;10.10;99.90
21759;DHT22;11041;50.854;20.580;2023-03-13T09:51:37;10.80;99.90
21759;DHT22;11041;50.854;20.580;2023-03-13T09:56:46;11.00;99.90
21759;DHT22;11041;50.854;20.580;2023-03-13T09:59:33;10.90;99.90
21759;DHT22;11041;50.854;20.580;2023-03-13T10:02:03;11.00;99.90
21759;DHT22;11041;50.854;20.580;2023-03-13T10:04:44;11.10;99.90
21759;DHT22;11041;50.854;20.580;2023-03-13T10:07:17;11.10;99.90
21759;DHT22;11041;50.854;20.580;2023-03-13T10:09:46;11.20;99.90
21759;DHT22;11041;50.854;20.580;2023-03-13T10:17:50;11.20;99.90
21759;DHT22;11041;50.854;20.580;2023-03-13T10:20:24;11.30;99.90
21759;DHT22;11041;50.854;20.580;2023-03-13T10:23:02;11.40;99.90
21759;DHT22;11041;50.854;20.580;2023-03-13T10:25:34;11.50;99.90
21759;DHT22;11041;50.854;20.580;2023-03-13T10:28:15;11.70;99.90
21759;DHT22;11041;50.854;20.580;2023-03-13T10:30:49;11.70;99.90
21759;DHT22;11041;50.854;20.580;2023-03-13T10:33:26;11.80;99.90
21759;DHT22;11041;50.854;20.580;2023-03-13T10:36:07;11.80;99.90
21759;DHT22;11041;50.854;20.580;2023-03-13T10:38:56;11.90;99.90
21759;DHT22;11041;50.854;20.580;2023-03-13T10:41:26;11.90;99.90
21759;DHT22;11041;50.854;20.580;2023-03-13T10:44:02;11.90;99.90
21759;DHT22;11041;50.854;20.580;2023-03-13T10:46:33;12.00;99.90
21759;DHT22;11041;50.854;20.580;2023-03-13T10:49:22;11.80;99.90
21759;DHT22;11041;50.854;20.580;2023-03-13T10:51:52;12.00;99.90
21759;DHT22;11041;50.854;20.580;2023-03-13T10:54:24;12.00;99.90
21759;DHT22;11041;50.854;20.580;2023-03-13T10:59:45;12.20;99.90
21759;DHT22;11041;50.854;20.580;2023-03-13T11:02:22;12.40;99.90
21759;DHT22;11041;50.854;20.580;2023-03-13T11:04:50;12.40;99.90
21759;DHT22;11041;50.854;20.580;2023-03-13T11:07:35;12.50;99.90
21759;DHT22;11041;50.854;20.580;2023-03-13T11:10:17;12.50;99.90
21759;DHT22;11041;50.854;20.580;2023-03-13T11:13:02;12.50;99.90
21759;DHT22;11041;50.854;20.580;2023-03-13T11:15:38;12.70;99.90
21759;DHT22;11041;50.854;20.580;2023-03-13T11:18:21;12.70;99.90
21759;DHT22;11041;50.854;20.580;2023-03-13T11:20:56;12.70;99.90
21759;DHT22;11041;50.854;20.580;2023-03-13T11:23:38;12.70;99.90
21759;DHT22;11041;50.854;20.580;2023-03-13T11:26:28;13.00;99.90
21759;DHT22;11041;50.854;20.580;2023-03-13T11:29:54;13.20;99.90
21759;DHT22;11041;50.854;20.580;2023-03-13T11:37:54;13.30;99.90
21759;DHT22;11041;50.854;20.580;2023-03-13T11:40:40;13.40;99.90
21759;DHT22;11041;50.854;20.580;2023-03-13T11:43:41;13.40;99.90
21759;DHT22;11041;50.854;20.580;2023-03-13T11:52:57;14.00;99.90
21759;DHT22;11041;50.854;20.580;2023-03-13T11:58:32;14.10;99.90
21759;DHT22;11041;50.854;20.580;2023-03-13T12:01:24;14.20;99.90
21759;DHT22;11041;50.854;20.580;2023-03-13T12:03:58;14.00;99.90
21759;DHT22;11041;50.854;20.580;2023-03-13T12:06:55;13.90;99.90
21759;DHT22;11041;50.854;20.580;2023-03-13T12:21:20;13.60;99.90
21759;DHT22;11041;50.854;20.580;2023-03-13T12:24:18;13.50;99.90
21759;DHT22;11041;50.854;20.580;2023-03-13T12:27:16;13.50;99.90
21759;DHT22;11041;50.854;20.580;2023-03-13T12:33:16;13.40;99.90
21759;DHT22;11041;50.854;20.580;2023-03-13T12:44:57;13.30;99.90
21759;DHT22;11041;50.854;20.580;2023-03-13T12:47:31;13.20;99.90
21759;DHT22;11041;50.854;20.580;2023-03-13T12:50:43;13.20;99.90
21759;DHT22;11041;50.854;20.580;2023-03-13T12:59:19;13.20;99.90
21759;DHT22;11041;50.854;20.580;2023-03-13T13:01:54;13.00;99.90
21759;DHT22;11041;50.854;20.580;2023-03-13T13:04:27;13.00;99.90
21759;DHT22;11041;50.854;20.580;2023-03-13T13:06:59;13.10;99.90
21759;DHT22;11041;50.854;20.580;2023-03-13T13:12:40;13.00;99.90
21759;DHT22;11041;50.854;20.580;2023-03-13T13:15:30;13.00;99.90
21759;DHT22;11041;50.854;20.580;2023-03-13T13:18:23;13.00;99.90
21759;DHT22;11041;50.854;20.580;2023-03-13T13:23:37;13.10;99.90
21759;DHT22;11041;50.854;20.580;2023-03-13T13:28:55;13.00;99.90
21759;DHT22;11041;50.854;20.580;2023-03-13T13:36:58;12.80;99.90
21759;DHT22;11041;50.854;20.580;2023-03-13T13:39:52;12.80;99.90
21759;DHT22;11041;50.854;20.580;2023-03-13T13:42:36;12.70;99.90
21759;DHT22;11041;50.854;20.580;2023-03-13T13:47:46;12.40;99.90
21759;DHT22;11041;50.854;20.580;2023-03-13T13:50:20;12.30;99.90
21759;DHT22;11041;50.854;20.580;2023-03-13T13:52:49;12.20;99.90
21759;DHT22;11041;50.854;20.580;2023-03-13T13:58:13;12.00;99.90
21759;DHT22;11041;50.854;20.580;2023-03-13T14:00:57;11.90;99.90
21759;DHT22;11041;50.854;20.580;2023-03-13T14:03:38;11.80;99.90
21759;DHT22;11041;50.854;20.580;2023-03-13T14:06:17;11.80;99.90
21759;DHT22;11041;50.854;20.580;2023-03-13T14:08:55;11.60;99.90
21759;DHT22;11041;50.854;20.580;2023-03-13T14:11:37;11.50;99.90
21759;DHT22;11041;50.854;20.580;2023-03-13T14:14:23;11.30;99.90
21759;DHT22;11041;50.854;20.580;2023-03-13T14:16:56;11.30;99.90
21759;DHT22;11041;50.854;20.580;2023-03-13T14:19:38;11.20;99.90
21759;DHT22;11041;50.854;20.580;2023-03-13T14:22:09;11.10;99.90
21759;DHT22;11041;50.854;20.580;2023-03-13T14:24:40;11.00;99.90
21759;DHT22;11041;50.854;20.580;2023-03-13T14:27:16;10.90;99.90
21759;DHT22;11041;50.854;20.580;2023-03-13T14:30:07;11.00;99.90
21759;DHT22;11041;50.854;20.580;2023-03-13T14:32:35;11.00;99.90
21759;DHT22;11041;50.854;20.580;2023-03-13T14:35:03;10.90;99.90
21759;DHT22;11041;50.854;20.580;2023-03-13T14:37:41;10.90;99.90
21759;DHT22;11041;50.854;20.580;2023-03-13T14:40:23;11.00;99.90
21759;DHT22;11041;50.854;20.580;2023-03-13T14:42:58;11.00;99.90
21759;DHT22;11041;50.854;20.580;2023-03-13T14:45:29;11.00;99.90
21759;DHT22;11041;50.854;20.580;2023-03-13T14:48:28;11.00;99.90
21759;DHT22;11041;50.854;20.580;2023-03-13T14:51:22;11.10;99.90
21759;DHT22;11041;50.854;20.580;2023-03-13T14:53:55;11.10;99.90
21759;DHT22;11041;50.854;20.580;2023-03-13T14:57:00;11.10;99.90
21759;DHT22;11041;50.854;20.580;2023-03-13T14:59:46;11.20;99.90
21759;DHT22;11041;50.854;20.580;2023-03-13T15:02:29;11.20;99.90
21759;DHT22;11041;50.854;20.580;2023-03-13T15:05:01;11.20;99.90
21759;DHT22;11041;50.854;20.580;2023-03-13T15:10:22;11.20;99.90
21759;DHT22;11041;50.854;20.580;2023-03-13T15:12:50;11.10;99.90
21759;DHT22;11041;50.854;20.580;2023-03-13T15:15:18;11.10;99.90
21759;DHT22;11041;50.854;20.580;2023-03-13T15:17:44;11.00;99.90
21759;DHT22;11041;50.854;20.580;2023-03-13T15:20:13;11.10;99.90
21759;DHT22;11041;50.854;20.580;2023-03-13T15:22:43;11.10;99.90
21759;DHT22;11041;50.854;20.580;2023-03-13T15:25:21;11.20;99.90
21759;DHT22;11041;50.854;20.580;2023-03-13T15:27:49;11.20;99.90
21759;DHT22;11041;50.854;20.580;2023-03-13T15:30:20;11.20;99.90
21759;DHT22;11041;50.854;20.580;2023-03-13T15:32:50;11.20;99.90
21759;DHT22;11041;50.854;20.580;2023-03-13T15:35:22;11.30;99.90
21759;DHT22;11041;50.854;20.580;2023-03-13T15:37:56;11.40;99.90
21759;DHT22;11041;50.854;20.580;2023-03-13T15:40:24;11.40;99.90
21759;DHT22;11041;50.854;20.580;2023-03-13T15:42:53;11.40;99.90
21759;DHT22;11041;50.854;20.580;2023-03-13T15:45:20;11.50;99.90
21759;DHT22;11041;50.854;20.580;2023-03-13T15:47:47;11.50;99.90
21759;DHT22;11041;50.854;20.580;2023-03-13T15:50:17;11.40;99.90
21759;DHT22;11041;50.854;20.580;2023-03-13T15:52:45;11.30;99.90
21759;DHT22;11041;50.854;20.580;2023-03-13T15:55:12;11.20;99.90
21759;DHT22;11041;50.854;20.580;2023-03-13T15:57:48;11.30;99.90
21759;DHT22;11041;50.854;20.580;2023-03-13T16:00:23;11.20;99.90
21759;DHT22;11041;50.854;20.580;2023-03-13T16:02:51;11.30;99.90
21759;DHT22;11041;50.854;20.580;2023-03-13T16:05:18;11.20;99.90
21759;DHT22;11041;50.854;20.580;2023-03-13T16:07:45;11.20;99.90
21759;DHT22;11041;50.854;20.580;2023-03-13T16:10:18;11.10;99.90
21759;DHT22;11041;50.854;20.580;2023-03-13T16:12:46;11.10;99.90
21759;DHT22;11041;50.854;20.580;2023-03-13T16:15:13;11.20;99.90
21759;DHT22;11041;50.854;20.580;2023-03-13T16:17:40;11.10;99.90
21759;DHT22;11041;50.854;20.580;2023-03-13T16:20:18;11.00;99.90
21759;DHT22;11041;50.854;20.580;2023-03-13T16:22:46;11.00;99.90
21759;DHT22;11041;50.854;20.580;2023-03-13T16:25:13;10.90;99.90
21759;DHT22;11041;50.854;20.580;2023-03-13T16:27:41;10.90;99.90
21759;DHT22;11041;50.854;20.580;2023-03-13T16:30:17;10.80;99.90
21759;DHT22;11041;50.854;20.580;2023-03-13T16:32:49;10.80;99.90
21759;DHT22;11041;50.854;20.580;2023-03-13T16:35:15;10.80;99.90
21759;DHT22;11041;50.854;20.580;2023-03-13T16:37:43;10.90;99.90
21759;DHT22;11041;50.854;20.580;2023-03-13T16:40:23;10.90;99.90
21759;DHT22;11041;50.854;20.580;2023-03-13T16:42:52;10.90;99.90
21759;DHT22;11041;50.854;20.580;2023-03-13T16:45:18;10.80;99.90
21759;DHT22;11041;50.854;20.580;2023-03-13T16:47:45;10.70;99.90
21759;DHT22;11041;50.854;20.580;2023-03-13T16:53:06;10.60;99.90
21759;DHT22;11041;50.854;20.580;2023-03-13T16:55:32;10.30;99.90
21759;DHT22;11041;50.854;20.580;2023-03-13T16:58:02;10.30;99.90
21759;DHT22;11041;50.854;20.580;2023-03-13T17:00:30;10.30;99.90
21759;DHT22;11041;50.854;20.580;2023-03-13T17:02:57;10.30;99.90
21759;DHT22;11041;50.854;20.580;2023-03-13T17:05:25;10.20;99.90
21759;DHT22;11041;50.854;20.580;2023-03-13T17:07:52;10.20;99.90
21759;DHT22;11041;50.854;20.580;2023-03-13T17:10:26;10.20;99.90
21759;DHT22;11041;50.854;20.580;2023-03-13T17:12:58;10.20;99.90
21759;DHT22;11041;50.854;20.580;2023-03-13T17:15:26;10.20;99.90
21759;DHT22;11041;50.854;20.580;2023-03-13T17:17:54;10.20;99.90
21759;DHT22;11041;50.854;20.580;2023-03-13T17:20:23;10.20;99.90
21759;DHT22;11041;50.854;20.580;2023-03-13T17:22:54;10.20;99.90
21759;DHT22;11041;50.854;20.580;2023-03-13T17:25:22;10.20;99.90
21759;DHT22;11041;50.854;20.580;2023-03-13T17:27:49;10.20;99.90
21759;DHT22;11041;50.854;20.580;2023-03-13T17:30:25;10.20;99.90
21759;DHT22;11041;50.854;20.580;2023-03-13T17:32:57;10.30;99.90